createdAt,value
2023-09-10T00:00:56.937Z,21.83
2023-09-10T00:01:58.927Z,21.35
2023-09-10T00:03:00.458Z,21.92
2023-09-10T00:04:02.012Z,21.48
2023-09-10T00:05:03.697Z,22.17
2023-09-10T00:06:06.589Z,21.95
2023-09-10T00:07:09.175Z,21.52
2023-09-10T00:08:10.723Z,21.50
2023-09-10T00:09:12.344Z,21.15
2023-09-10T00:10:14.022Z,22.10
2023-09-10T00:11:15.609Z,23.85
2023-09-10T00:12:17.096Z,21.38
2023-09-10T00:13:19.020Z,21.67
2023-09-10T00:15:21.862Z,21.13
2023-09-10T00:16:23.358Z,20.55
2023-09-10T00:17:24.916Z,20.75
2023-09-10T00:18:26.407Z,22.13
2023-09-10T00:19:27.886Z,22.52
2023-09-10T00:20:29.494Z,22.17
2023-09-10T00:21:31.028Z,22.33
2023-09-10T00:22:33.055Z,21.70
2023-09-10T00:23:34.555Z,21.77
2023-09-10T00:24:36.394Z,21.52
2023-09-10T00:25:37.870Z,21.80
2023-09-10T00:26:39.352Z,21.75
2023-09-10T00:27:40.842Z,23.80
2023-09-10T00:28:42.656Z,22.88
2023-09-10T00:29:44.123Z,24.42
2023-09-10T00:30:53.238Z,22.17
2023-09-10T00:31:54.843Z,23.63
2023-09-10T00:32:56.443Z,22.05
2023-09-10T00:33:58.006Z,21.63
2023-09-10T00:34:59.605Z,22.02
2023-09-10T00:36:01.120Z,22.42
2023-09-10T00:37:02.663Z,21.60
2023-09-10T00:38:04.407Z,24.77
2023-09-10T00:40:09.010Z,24.55
2023-09-10T00:41:10.577Z,25.33
2023-09-10T00:42:12.285Z,23.40
2023-09-10T00:43:13.740Z,21.90
2023-09-10T00:44:15.221Z,25.10
2023-09-10T00:45:17.136Z,25.65
2023-09-10T00:47:20.273Z,23.63
2023-09-10T00:48:21.890Z,25.52
2023-09-10T00:49:23.656Z,22.38
2023-09-10T00:50:25.241Z,22.05
2023-09-10T00:51:27.680Z,22.15
2023-09-10T00:52:30.409Z,22.48
2023-09-10T00:53:32.383Z,21.95
2023-09-10T00:55:36.549Z,21.15
2023-09-10T00:56:38.363Z,22.40
2023-09-10T00:57:40.434Z,22.15
2023-09-10T00:58:43.181Z,22.58
2023-09-10T00:59:45.356Z,22.73
2023-09-10T01:00:48.676Z,22.23
2023-09-10T01:01:50.842Z,22.80
2023-09-10T01:02:53.609Z,21.85
2023-09-10T01:03:55.733Z,22.48
2023-09-10T01:05:58.797Z,22.70
2023-09-10T01:07:00.621Z,21.65
2023-09-10T01:08:04.198Z,22.63
2023-09-10T01:09:05.931Z,22.42
2023-09-10T01:10:08.346Z,22.40
2023-09-10T01:11:28.668Z,22.60
2023-09-10T01:12:52.280Z,23.15
2023-09-10T01:14:32.382Z,21.95
2023-09-10T01:15:57.242Z,22.17
2023-09-10T01:17:07.407Z,22.15
2023-09-10T01:18:22.535Z,22.05
2023-09-10T01:19:53.370Z,21.70
2023-09-10T01:20:54.937Z,21.67
2023-09-10T01:22:01.279Z,21.75
2023-09-10T01:23:16.372Z,22.05
2023-09-10T01:24:28.604Z,23.45
2023-09-10T01:25:32.939Z,22.25
2023-09-10T01:26:37.671Z,24.10
2023-09-10T01:27:39.254Z,23.83
2023-09-10T01:28:40.904Z,22.80
2023-09-10T01:29:43.563Z,23.35
2023-09-10T01:30:45.099Z,23.38
2023-09-10T01:31:50.481Z,23.77
2023-09-10T01:33:22.957Z,23.20
2023-09-10T01:34:28.407Z,22.90
2023-09-10T01:35:34.932Z,23.13
2023-09-10T01:36:44.059Z,23.05
2023-09-10T01:38:04.383Z,24.27
2023-09-10T01:39:18.107Z,22.65
2023-09-10T01:40:22.981Z,23.23
2023-09-10T01:41:26.372Z,23.30
2023-09-10T01:42:27.910Z,23.67
2023-09-10T01:43:31.117Z,23.33
2023-09-10T01:44:34.243Z,27.27
2023-09-10T01:45:36.482Z,25.20
2023-09-10T01:46:39.270Z,23.83
2023-09-10T01:47:40.895Z,27.77
2023-09-10T01:48:42.843Z,24.38
2023-09-10T01:50:45.891Z,22.15
2023-09-10T01:51:48.499Z,23.05
2023-09-10T01:52:49.992Z,23.90
2023-09-10T01:53:52.021Z,26.25
2023-09-10T01:54:53.456Z,22.35
2023-09-10T01:55:55.654Z,23.20
2023-09-10T01:56:57.459Z,25.13
2023-09-10T01:58:00.107Z,25.90
2023-09-10T01:59:01.696Z,24.50
2023-09-10T02:00:05.246Z,22.58
2023-09-10T02:01:07.579Z,25.48
2023-09-10T02:02:09.181Z,23.70
2023-09-10T02:03:10.929Z,23.55
2023-09-10T02:04:12.759Z,26.92
2023-09-10T02:05:14.391Z,27.17
2023-09-10T02:06:15.898Z,24.27
2023-09-10T02:07:17.424Z,24.10
2023-09-10T02:08:18.881Z,22.95
2023-09-10T02:09:20.367Z,23.25
2023-09-10T02:10:21.890Z,23.25
2023-09-10T02:11:23.363Z,23.48
2023-09-10T02:12:25.253Z,23.27
2023-09-10T02:14:28.094Z,22.15
2023-09-10T02:15:30.390Z,23.48
2023-09-10T02:16:31.977Z,24.67
2023-09-10T02:17:34.227Z,23.77
2023-09-10T02:18:35.760Z,24.10
2023-09-10T02:19:37.267Z,26.70
2023-09-10T02:20:38.941Z,27.20
2023-09-10T02:21:40.396Z,23.90
2023-09-10T02:22:41.946Z,25.25
2023-09-10T02:23:43.675Z,23.75
2023-09-10T02:24:51.081Z,25.35
2023-09-10T02:25:53.232Z,24.65
2023-09-10T02:26:54.823Z,24.25
2023-09-10T02:27:56.305Z,24.05
2023-09-10T02:28:57.855Z,23.52
2023-09-10T02:29:59.692Z,24.60
2023-09-10T02:31:08.168Z,25.48
2023-09-10T02:32:09.720Z,26.00
2023-09-10T02:33:11.290Z,24.92
2023-09-10T02:34:12.793Z,25.10
2023-09-10T02:35:14.310Z,27.58
2023-09-10T02:36:15.796Z,24.77
2023-09-10T02:37:17.243Z,24.08
2023-09-10T02:38:18.690Z,27.10
2023-09-10T02:39:20.166Z,24.98
2023-09-10T02:40:21.729Z,24.77
2023-09-10T02:41:23.466Z,24.52
2023-09-10T02:42:24.934Z,26.02
2023-09-10T02:43:26.443Z,25.63
2023-09-10T02:44:27.960Z,24.10
2023-09-10T02:45:29.507Z,24.88
2023-09-10T02:46:31.012Z,26.35
2023-09-10T02:47:32.488Z,26.27
2023-09-10T02:48:33.999Z,24.38
2023-09-10T02:49:35.504Z,25.38
2023-09-10T02:50:36.945Z,25.85
2023-09-10T02:51:38.400Z,25.20
2023-09-10T02:52:41.184Z,28.88
2023-09-10T02:53:42.771Z,25.42
2023-09-10T02:54:44.237Z,29.30
2023-09-10T02:55:45.710Z,28.70
2023-09-10T02:56:47.237Z,25.02
2023-09-10T02:57:48.730Z,25.42
2023-09-10T02:58:50.246Z,24.27
2023-09-10T02:59:51.966Z,25.00
2023-09-10T03:00:53.537Z,29.05
2023-09-10T03:01:55.253Z,25.38
2023-09-10T03:02:57.186Z,25.23
2023-09-10T03:03:58.814Z,29.48
2023-09-10T03:05:00.813Z,24.33
2023-09-10T03:07:04.013Z,25.77
2023-09-10T03:08:05.942Z,26.38
2023-09-10T03:10:09.455Z,27.90
2023-09-10T03:11:10.997Z,24.67
2023-09-10T03:12:27.403Z,24.55
2023-09-10T03:13:28.881Z,24.13
2023-09-10T03:14:30.303Z,25.35
2023-09-10T03:15:31.869Z,26.88
2023-09-10T03:16:34.783Z,24.98
2023-09-10T03:17:36.270Z,28.60
2023-09-10T03:18:38.117Z,24.75
2023-09-10T03:20:42.186Z,23.73
2023-09-10T03:21:43.620Z,23.88
2023-09-10T03:22:45.219Z,25.63
2023-09-10T03:23:47.072Z,25.65
2023-09-10T03:24:48.558Z,26.42
2023-09-10T03:25:50.094Z,24.52
2023-09-10T03:26:51.581Z,25.33
2023-09-10T03:27:53.011Z,26.00
2023-09-10T03:28:54.500Z,27.55
2023-09-10T03:29:56.065Z,29.77
2023-09-10T03:30:58.631Z,29.55
2023-09-10T03:32:00.450Z,27.05
2023-09-10T03:33:02.036Z,26.83
2023-09-10T03:34:03.619Z,26.90
2023-09-10T03:35:06.195Z,26.38
2023-09-10T03:36:07.812Z,24.95
2023-09-10T03:37:09.431Z,26.45
2023-09-10T03:38:10.890Z,25.95
2023-09-10T03:39:13.368Z,25.55
2023-09-10T03:40:15.487Z,25.40
2023-09-10T03:41:16.977Z,26.35
2023-09-10T03:42:18.494Z,26.58
2023-09-10T03:43:20.885Z,30.45
2023-09-10T03:44:23.269Z,25.88
2023-09-10T03:45:24.714Z,29.80
2023-09-10T03:46:26.611Z,26.25
2023-09-10T03:48:31.669Z,28.73
2023-09-10T03:49:33.138Z,26.30
2023-09-10T03:50:35.839Z,31.05
2023-09-10T03:51:40.048Z,26.63
2023-09-10T03:52:41.533Z,28.98
2023-09-10T03:53:43.098Z,26.02
2023-09-10T03:54:44.567Z,27.23
2023-09-10T03:55:46.193Z,26.63
2023-09-10T03:56:47.741Z,25.98
2023-09-10T03:57:49.252Z,26.73
2023-09-10T03:58:50.725Z,26.98
2023-09-10T03:59:52.192Z,27.67
2023-09-10T04:00:53.798Z,28.20
2023-09-10T04:02:00.158Z,27.30
2023-09-10T04:03:01.802Z,27.55
2023-09-10T04:04:04.601Z,27.23
2023-09-10T04:05:06.992Z,30.70
2023-09-10T04:06:08.640Z,29.70
2023-09-10T04:07:10.360Z,27.88
2023-09-10T04:08:11.933Z,31.70
2023-09-10T04:09:13.437Z,27.60
2023-09-10T04:10:14.894Z,26.42
2023-09-10T04:11:16.463Z,25.83
2023-09-10T04:12:17.918Z,25.85
2023-09-10T04:13:19.377Z,27.13
2023-09-10T04:14:21.355Z,27.95
2023-09-10T04:15:22.873Z,27.08
2023-09-10T04:16:24.393Z,28.25
2023-09-10T04:17:29.675Z,27.90
2023-09-10T04:18:31.224Z,27.40
2023-09-10T04:19:32.714Z,27.70
2023-09-10T04:20:34.266Z,27.65
2023-09-10T04:21:35.706Z,27.98
2023-09-10T04:22:37.609Z,26.38
2023-09-10T04:24:40.420Z,25.35
2023-09-10T04:25:42.246Z,27.02
2023-09-10T04:26:43.733Z,26.95
2023-09-10T04:27:45.215Z,26.63
2023-09-10T04:28:46.680Z,27.98
2023-09-10T04:29:48.164Z,26.75
2023-09-10T04:30:49.708Z,26.83
2023-09-10T04:31:51.294Z,27.20
2023-09-10T04:32:52.860Z,27.52
2023-09-10T04:33:54.340Z,30.98
2023-09-10T04:34:56.000Z,26.58
2023-09-10T04:36:02.266Z,30.15
2023-09-10T04:37:05.556Z,27.08
2023-09-10T04:38:07.497Z,31.05
2023-09-10T04:40:13.402Z,27.77
2023-09-10T04:41:15.018Z,25.67
2023-09-10T04:42:16.504Z,30.65
2023-09-10T04:43:17.967Z,26.55
2023-09-10T04:44:20.850Z,26.35
2023-09-10T04:45:22.323Z,26.73
2023-09-10T04:46:23.797Z,27.80
2023-09-10T04:47:25.315Z,27.88
2023-09-10T04:48:26.799Z,27.50
2023-09-10T04:49:28.273Z,32.33
2023-09-10T04:50:29.719Z,28.38
2023-09-10T04:51:31.183Z,28.38
2023-09-10T04:52:32.702Z,28.60
2023-09-10T04:53:34.652Z,29.35
2023-09-10T04:55:37.502Z,26.67
2023-09-10T04:56:39.035Z,27.17
2023-09-10T04:57:40.500Z,27.30
2023-09-10T04:58:42.299Z,29.88
2023-09-10T04:59:44.086Z,29.48
2023-09-10T05:00:45.542Z,29.73
2023-09-10T05:01:47.063Z,33.47
2023-09-10T05:02:48.993Z,28.60
2023-09-10T05:03:50.663Z,27.80
2023-09-10T05:04:52.263Z,28.27
2023-09-10T05:06:01.497Z,27.70
2023-09-10T05:07:03.495Z,30.67
2023-09-10T05:08:05.264Z,28.23
2023-09-10T05:09:09.119Z,27.42
2023-09-10T05:10:11.705Z,26.83
2023-09-10T05:11:15.707Z,31.00
2023-09-10T05:12:17.448Z,27.48
2023-09-10T05:13:18.976Z,31.00
2023-09-10T05:14:20.546Z,26.50
2023-09-10T05:15:23.547Z,25.98
2023-09-10T05:16:25.121Z,26.48
2023-09-10T05:17:26.671Z,27.35
2023-09-10T05:18:28.411Z,28.10
2023-09-10T05:19:29.871Z,27.25
2023-09-10T05:20:32.940Z,29.55
2023-09-10T05:21:34.438Z,27.83
2023-09-10T05:22:36.049Z,26.77
2023-09-10T05:23:37.492Z,26.10
2023-09-10T05:24:39.081Z,26.92
2023-09-10T05:25:40.611Z,27.52
2023-09-10T05:26:42.083Z,26.67
2023-09-10T05:27:43.615Z,25.73
2023-09-10T05:28:46.937Z,29.75
2023-09-10T05:29:48.995Z,26.08
2023-09-10T05:30:50.491Z,25.85
2023-09-10T05:31:52.008Z,27.15
2023-09-10T05:32:53.664Z,26.48
2023-09-10T05:33:55.451Z,29.70
2023-09-10T05:34:57.489Z,25.02
2023-09-10T05:35:59.949Z,25.75
2023-09-10T05:37:01.415Z,29.48
2023-09-10T05:38:02.992Z,27.08
2023-09-10T05:39:04.707Z,27.17
2023-09-10T05:40:06.727Z,30.70
2023-09-10T05:41:09.637Z,26.10
2023-09-10T05:42:11.098Z,30.02
2023-09-10T05:43:12.694Z,28.05
2023-09-10T05:44:14.194Z,31.98
2023-09-10T05:45:15.724Z,28.23
2023-09-10T05:46:17.370Z,27.52
2023-09-10T05:47:21.162Z,27.60
2023-09-10T05:48:23.402Z,27.42
2023-09-10T05:49:25.149Z,27.30
2023-09-10T05:50:27.050Z,27.48
2023-09-10T05:52:29.873Z,26.48
2023-09-10T05:53:31.389Z,26.52
2023-09-10T05:54:32.863Z,27.17
2023-09-10T05:55:38.905Z,27.80
2023-09-10T05:56:40.414Z,26.65
2023-09-10T05:57:41.904Z,28.42
2023-09-10T05:58:43.949Z,27.35
2023-09-10T05:59:45.550Z,27.50
2023-09-10T06:00:47.153Z,27.88
2023-09-10T06:01:48.782Z,27.58
2023-09-10T06:02:50.650Z,26.77
2023-09-10T06:04:53.926Z,26.10
2023-09-10T06:05:58.881Z,25.55
2023-09-10T06:07:06.249Z,25.30
2023-09-10T06:08:07.971Z,24.88
2023-09-10T06:09:10.343Z,29.42
2023-09-10T06:10:11.996Z,26.08
2023-09-10T06:11:13.525Z,26.02
2023-09-10T06:12:15.029Z,29.00
2023-09-10T06:13:16.512Z,27.02
2023-09-10T06:14:18.030Z,23.75
2023-09-10T06:15:19.798Z,23.80
2023-09-10T06:16:21.333Z,25.13
2023-09-10T06:17:22.969Z,24.63
2023-09-10T06:18:24.502Z,27.65
2023-09-10T06:19:26.077Z,23.95
2023-09-10T06:20:27.678Z,25.45
2023-09-10T06:21:29.797Z,21.65
2023-09-10T06:22:31.309Z,21.48
2023-09-10T06:23:32.817Z,23.85
2023-09-10T06:24:34.662Z,20.77
2023-09-10T06:25:36.249Z,24.77
2023-09-10T06:26:38.170Z,20.88
2023-09-10T06:28:41.295Z,21.25
2023-09-10T06:29:44.225Z,20.95
2023-09-10T06:30:45.879Z,21.05
2023-09-10T06:31:47.440Z,23.20
2023-09-10T06:32:52.307Z,23.42
2023-09-10T06:33:57.120Z,20.75
2023-09-10T06:34:58.672Z,21.02
2023-09-10T06:36:02.190Z,20.67
2023-09-10T06:37:04.169Z,19.23
2023-09-10T06:38:05.762Z,20.50
2023-09-10T06:39:07.498Z,20.98
2023-09-10T06:40:10.344Z,23.00
2023-09-10T06:41:12.209Z,20.13
2023-09-10T06:43:15.780Z,21.17
2023-09-10T06:44:17.716Z,18.33
2023-09-10T06:46:20.695Z,17.92
2023-09-10T06:47:22.311Z,18.90
2023-09-10T06:48:23.871Z,18.70
2023-09-10T06:49:25.373Z,20.23
2023-09-10T06:50:27.039Z,18.88
2023-09-10T06:51:28.807Z,20.15
2023-09-10T06:52:30.293Z,19.13
2023-09-10T06:53:32.221Z,20.60
2023-09-10T06:55:35.122Z,16.77
2023-09-10T06:56:36.647Z,17.35
2023-09-10T06:57:38.157Z,17.98
2023-09-10T06:58:39.839Z,17.35
2023-09-10T07:00:42.854Z,17.48
2023-09-10T07:01:45.330Z,18.08
2023-09-10T07:02:46.929Z,16.95
2023-09-10T07:03:53.449Z,16.45
2023-09-10T07:04:55.110Z,17.90
2023-09-10T07:05:56.704Z,19.77
2023-09-10T07:06:58.331Z,16.63
2023-09-10T07:08:00.310Z,19.13
2023-09-10T07:09:01.812Z,16.98
2023-09-10T07:10:03.798Z,16.88
2023-09-10T07:11:05.489Z,17.05
2023-09-10T07:12:07.509Z,16.70
2023-09-10T07:13:09.095Z,16.80
2023-09-10T07:14:10.705Z,17.58
2023-09-10T07:15:12.218Z,15.93
2023-09-10T07:16:13.821Z,18.20
2023-09-10T07:17:15.323Z,17.88
2023-09-10T07:18:16.932Z,15.93
2023-09-10T07:19:18.526Z,17.23
2023-09-10T07:20:20.020Z,15.75
2023-09-10T07:21:21.581Z,16.10
2023-09-10T07:22:23.128Z,15.27
2023-09-10T07:23:24.620Z,18.63
2023-09-10T07:24:26.101Z,17.52
2023-09-10T07:25:29.876Z,15.90
2023-09-10T07:26:31.600Z,14.52
2023-09-10T07:27:33.062Z,16.27
2023-09-10T07:28:34.581Z,14.65
2023-09-10T07:29:36.079Z,15.75
2023-09-10T07:30:37.605Z,14.20
2023-09-10T07:31:39.106Z,14.55
2023-09-10T07:32:41.353Z,14.40
2023-09-10T07:33:42.844Z,15.15
2023-09-10T07:34:44.315Z,16.45
2023-09-10T07:35:45.764Z,13.95
2023-09-10T07:36:47.649Z,16.15
2023-09-10T07:38:50.594Z,13.88
2023-09-10T07:39:52.103Z,13.95
2023-09-10T07:40:53.692Z,15.45
2023-09-10T07:41:55.164Z,15.68
2023-09-10T07:43:00.008Z,15.52
2023-09-10T07:44:03.613Z,14.43
2023-09-10T07:45:06.607Z,14.30
2023-09-10T07:46:08.232Z,16.52
2023-09-10T07:47:10.365Z,14.50
2023-09-10T07:48:12.948Z,16.58
2023-09-10T07:49:14.536Z,13.52
2023-09-10T07:50:16.171Z,16.90
2023-09-10T07:51:17.657Z,16.48
2023-09-10T07:52:19.649Z,14.50
2023-09-10T07:53:21.194Z,13.93
2023-09-10T07:54:22.702Z,14.05
2023-09-10T07:55:24.385Z,14.82
2023-09-10T07:56:25.948Z,14.60
2023-09-10T07:57:27.485Z,14.85
2023-09-10T07:58:29.072Z,13.88
2023-09-10T07:59:30.904Z,13.98
2023-09-10T08:01:35.192Z,13.73
2023-09-10T08:02:36.760Z,15.45
2023-09-10T08:03:39.868Z,14.13
2023-09-10T08:04:41.422Z,13.80
2023-09-10T08:05:42.901Z,13.32
2023-09-10T08:06:44.357Z,14.43
2023-09-10T08:07:45.828Z,14.02
2023-09-10T08:08:47.332Z,12.63
2023-09-10T08:09:48.790Z,15.05
2023-09-10T08:10:50.390Z,13.95
2023-09-10T08:11:51.947Z,12.32
2023-09-10T08:12:53.385Z,14.38
2023-09-10T08:13:54.891Z,12.65
2023-09-10T08:14:56.491Z,14.63
2023-09-10T08:15:57.955Z,12.25
2023-09-10T08:16:59.520Z,12.45
2023-09-10T08:18:01.239Z,14.75
2023-09-10T08:19:02.802Z,13.80
2023-09-10T08:20:07.151Z,11.57
2023-09-10T08:21:08.846Z,11.70
2023-09-10T08:22:10.322Z,13.57
2023-09-10T08:23:11.879Z,14.02
2023-09-10T08:24:13.373Z,13.50
2023-09-10T08:25:15.043Z,11.40
2023-09-10T08:26:16.518Z,13.20
2023-09-10T08:27:18.090Z,13.40
2023-09-10T08:28:19.764Z,11.90
2023-09-10T08:29:21.256Z,11.43
2023-09-10T08:30:22.746Z,11.43
2023-09-10T08:31:24.374Z,13.40
2023-09-10T08:32:25.918Z,11.35
2023-09-10T08:33:27.532Z,12.68
2023-09-10T08:34:29.002Z,11.00
2023-09-10T08:35:47.245Z,13.45
2023-09-10T08:36:48.748Z,10.73
2023-09-10T08:37:50.612Z,12.65
2023-09-10T08:38:53.602Z,12.73
2023-09-10T08:39:55.187Z,12.13
2023-09-10T08:40:59.754Z,10.80
2023-09-10T08:42:29.495Z,12.25
2023-09-10T08:43:36.808Z,11.30
2023-09-10T08:44:43.001Z,11.25
2023-09-10T08:45:45.093Z,11.30
2023-09-10T08:46:50.315Z,10.63
2023-09-10T08:47:55.796Z,11.70
2023-09-10T08:49:01.301Z,11.15
2023-09-10T08:50:09.122Z,9.65
2023-09-10T08:51:14.343Z,9.20
2023-09-10T08:52:16.830Z,10.60
2023-09-10T08:53:21.513Z,11.50
2023-09-10T08:54:23.449Z,11.23
2023-09-10T08:55:26.404Z,10.20
2023-09-10T08:56:28.233Z,9.45
2023-09-10T08:57:30.841Z,10.95
2023-09-10T08:58:33.553Z,9.82
2023-09-10T08:59:36.224Z,11.38
2023-09-10T09:00:39.531Z,11.25
2023-09-10T09:01:43.601Z,10.02
2023-09-10T09:02:46.740Z,9.90
2023-09-10T09:03:49.253Z,8.85
2023-09-10T09:04:51.355Z,11.88
2023-09-10T09:05:55.169Z,9.48
2023-09-10T09:06:58.356Z,9.27
2023-09-10T09:08:15.992Z,9.68
2023-09-10T09:09:20.172Z,9.63
2023-09-10T09:10:26.912Z,11.00
2023-09-10T09:11:29.035Z,9.27
2023-09-10T09:12:32.822Z,8.93
2023-09-10T09:13:37.072Z,10.32
2023-09-10T09:14:43.746Z,10.57
2023-09-10T09:15:46.078Z,8.70
2023-09-10T09:16:49.310Z,8.57
2023-09-10T09:17:54.823Z,9.18
2023-09-10T09:18:57.767Z,10.57
2023-09-10T09:20:00.911Z,9.00
2023-09-10T09:21:22.001Z,8.60
2023-09-10T09:22:29.205Z,10.18
2023-09-10T09:23:33.442Z,9.50
2023-09-10T09:24:35.342Z,8.68
2023-09-10T09:25:37.419Z,8.88
2023-09-10T09:26:40.774Z,8.98
2023-09-10T09:27:42.876Z,10.38
2023-09-10T09:28:45.579Z,10.65
2023-09-10T09:29:47.694Z,10.75
2023-09-10T09:30:49.265Z,8.90
2023-09-10T09:31:50.737Z,10.55
2023-09-10T09:32:53.247Z,10.60
2023-09-10T09:33:55.206Z,10.10
2023-09-10T09:34:56.733Z,9.18
2023-09-10T09:36:15.057Z,9.27
2023-09-10T09:37:22.461Z,9.73
2023-09-10T09:38:24.015Z,8.70
2023-09-10T09:39:26.330Z,9.10
2023-09-10T09:40:29.180Z,10.25
2023-09-10T09:41:35.423Z,8.60
2023-09-10T09:42:38.130Z,8.52
2023-09-10T09:43:39.867Z,8.68
2023-09-10T09:45:45.336Z,9.98
2023-09-10T09:46:48.817Z,9.50
2023-09-10T09:47:50.473Z,8.00
2023-09-10T09:48:51.972Z,8.20
2023-09-10T09:49:57.826Z,8.95
2023-09-10T09:51:00.109Z,8.20
2023-09-10T09:52:01.639Z,8.40
2023-09-10T09:53:03.736Z,8.85
2023-09-10T09:54:07.368Z,8.00
2023-09-10T09:55:09.644Z,9.30
2023-09-10T09:56:11.331Z,8.48
2023-09-10T09:58:14.271Z,8.52
2023-09-10T09:59:16.873Z,8.07
2023-09-10T10:00:18.840Z,8.32
2023-09-10T10:02:22.987Z,8.18
2023-09-10T10:03:25.063Z,7.65
2023-09-10T10:04:26.778Z,9.30
2023-09-10T10:06:37.269Z,9.20
2023-09-10T10:07:52.344Z,9.77
2023-09-10T10:08:54.563Z,9.15
2023-09-10T10:09:56.613Z,9.20
2023-09-10T10:10:58.343Z,8.48
2023-09-10T10:13:02.833Z,7.85
2023-09-10T10:14:05.652Z,8.98
2023-09-10T10:15:09.375Z,7.40
2023-09-10T10:16:11.331Z,9.10
2023-09-10T10:17:14.615Z,9.05
2023-09-10T10:18:17.608Z,8.32
2023-09-10T10:19:19.363Z,8.27
2023-09-10T10:20:22.203Z,7.97
2023-09-10T10:21:24.412Z,7.55
2023-09-10T10:22:26.134Z,7.38
2023-09-10T10:24:29.093Z,7.22
2023-09-10T10:25:31.786Z,8.93
2023-09-10T10:26:35.026Z,7.03
2023-09-10T10:27:36.607Z,7.53
2023-09-10T10:28:38.793Z,7.43
2023-09-10T10:29:41.366Z,7.47
2023-09-10T10:31:15.526Z,6.90
2023-09-10T10:32:29.734Z,6.85
2023-09-10T10:33:34.437Z,7.07
2023-09-10T10:34:48.206Z,6.70
2023-09-10T10:36:08.385Z,6.95
2023-09-10T10:37:18.493Z,8.52
2023-09-10T10:38:24.158Z,6.95
2023-09-10T10:39:53.403Z,6.53
2023-09-10T10:40:56.108Z,7.13
2023-09-10T10:42:00.732Z,6.97
2023-09-10T10:43:08.310Z,7.45
2023-09-10T10:44:12.838Z,7.05
2023-09-10T10:45:18.201Z,7.40
2023-09-10T10:46:22.083Z,6.72
2023-09-10T10:47:25.335Z,6.70
2023-09-10T10:48:31.789Z,8.02
2023-09-10T10:49:35.412Z,7.13
2023-09-10T10:50:39.242Z,8.52
2023-09-10T10:51:56.115Z,6.60
2023-09-10T10:53:12.077Z,7.65
2023-09-10T10:54:15.120Z,6.78
2023-09-10T10:55:18.754Z,7.60
2023-09-10T10:56:21.453Z,6.32
2023-09-10T10:57:24.460Z,6.47
2023-09-10T10:58:26.782Z,6.93
2023-09-10T10:59:28.435Z,6.50
2023-09-10T11:01:31.653Z,6.75
2023-09-10T11:02:33.246Z,7.45
2023-09-10T11:03:35.072Z,6.38
2023-09-10T11:04:36.628Z,6.20
2023-09-10T11:05:53.776Z,5.80
2023-09-10T11:07:18.848Z,6.05
2023-09-10T11:08:27.222Z,6.57
2023-09-10T11:09:36.351Z,6.53
2023-09-10T11:10:42.475Z,5.30
2023-09-10T11:11:43.913Z,7.18
2023-09-10T11:13:08.289Z,6.00
2023-09-10T11:14:11.762Z,7.22
2023-09-10T11:15:13.952Z,6.25
2023-09-10T11:16:17.093Z,5.78
2023-09-10T11:17:24.263Z,5.70
2023-09-10T11:18:38.186Z,6.05
2023-09-10T11:19:46.872Z,6.05
2023-09-10T11:20:50.711Z,5.78
2023-09-10T11:21:55.421Z,7.30
2023-09-10T11:23:12.898Z,6.28
2023-09-10T11:24:17.631Z,5.97
2023-09-10T11:25:19.161Z,6.25
2023-09-10T11:26:23.896Z,6.72
2023-09-10T11:27:31.705Z,6.65
2023-09-10T11:29:00.428Z,6.93
2023-09-10T11:30:05.813Z,6.28
2023-09-10T11:31:35.133Z,5.90
2023-09-10T11:32:37.490Z,5.80
2023-09-10T11:33:39.651Z,5.78
2023-09-10T11:34:41.537Z,6.30
2023-09-10T11:35:52.037Z,5.85
2023-09-10T11:37:01.707Z,7.72
2023-09-10T11:38:04.243Z,7.78
2023-09-10T11:39:05.814Z,6.60
2023-09-10T11:40:08.967Z,6.38
2023-09-10T11:41:11.121Z,6.97
2023-09-10T11:42:13.056Z,6.72
2023-09-10T11:43:18.219Z,7.50
2023-09-10T11:44:20.508Z,6.45
2023-09-10T11:45:22.311Z,6.30
2023-09-10T11:46:23.772Z,6.93
2023-09-10T11:47:27.851Z,5.50
2023-09-10T11:48:30.734Z,6.97
2023-09-10T11:49:32.539Z,5.97
2023-09-10T11:51:46.996Z,6.53
2023-09-10T11:52:49.366Z,6.00
2023-09-10T11:53:51.087Z,5.95
2023-09-10T11:55:54.600Z,7.53
2023-09-10T11:56:58.213Z,5.97
2023-09-10T11:57:59.963Z,7.03
2023-09-10T12:00:04.677Z,5.70
2023-09-10T12:01:06.152Z,7.30
2023-09-10T12:02:08.479Z,6.43
2023-09-10T12:03:10.151Z,6.35
2023-09-10T12:04:13.011Z,6.97
2023-09-10T12:05:14.668Z,6.35
2023-09-10T12:06:16.520Z,7.10
2023-09-10T12:07:18.270Z,5.35
2023-09-10T12:08:19.908Z,5.65
2023-09-10T12:10:22.878Z,5.65
2023-09-10T12:11:26.174Z,6.32
2023-09-10T12:12:35.734Z,6.60
2023-09-10T12:13:37.640Z,6.10
2023-09-10T12:14:39.470Z,6.95
2023-09-10T12:15:41.234Z,5.85
2023-09-10T12:16:42.959Z,5.68
2023-09-10T12:18:47.680Z,6.18
2023-09-10T12:19:49.913Z,5.50
2023-09-10T12:20:52.160Z,6.63
2023-09-10T12:21:53.706Z,5.60
2023-09-10T12:22:55.192Z,5.93
2023-09-10T12:23:57.017Z,5.93
2023-09-10T12:26:01.028Z,5.95
2023-09-10T12:27:03.554Z,5.78
2023-09-10T12:28:06.638Z,6.10
2023-09-10T12:29:08.441Z,5.90
2023-09-10T12:30:11.441Z,5.85
2023-09-10T12:31:13.541Z,5.88
2023-09-10T12:32:15.998Z,5.90
2023-09-10T12:33:21.426Z,7.68
2023-09-10T12:34:22.934Z,5.93
2023-09-10T12:35:24.477Z,5.70
2023-09-10T12:36:26.010Z,5.70
2023-09-10T12:37:27.532Z,6.70
2023-09-10T12:38:30.442Z,7.05
2023-09-10T12:39:34.594Z,5.82
2023-09-10T12:40:38.685Z,5.80
2023-09-10T12:41:40.716Z,5.75
2023-09-10T12:42:42.335Z,6.28
2023-09-10T12:43:46.682Z,6.97
2023-09-10T12:44:48.274Z,5.60
2023-09-10T12:45:51.073Z,5.63
2023-09-10T12:46:53.849Z,6.32
2023-09-10T12:47:55.600Z,5.60
2023-09-10T12:49:58.789Z,6.13
2023-09-10T12:51:00.461Z,5.80
2023-09-10T12:53:04.740Z,5.50
2023-09-10T12:54:06.425Z,6.15
2023-09-10T12:56:09.502Z,5.38
2023-09-10T12:57:12.986Z,5.75
2023-09-10T12:58:14.615Z,5.95
2023-09-10T13:00:18.007Z,5.80
2023-09-10T13:01:26.338Z,6.13
2023-09-10T13:02:35.456Z,5.78
2023-09-10T13:03:37.007Z,5.28
2023-09-10T13:04:38.493Z,5.63
2023-09-10T13:05:41.281Z,5.40
2023-09-10T13:06:44.686Z,5.63
2023-09-10T13:07:46.756Z,5.55
2023-09-10T13:08:48.237Z,5.75
2023-09-10T13:09:49.816Z,5.10
2023-09-10T13:10:51.311Z,5.63
2023-09-10T13:11:52.773Z,5.30
2023-09-10T13:12:54.236Z,5.20
2023-09-10T13:13:58.315Z,5.65
2023-09-10T13:14:59.789Z,5.40
2023-09-10T13:16:01.572Z,5.70
2023-09-10T13:17:03.159Z,5.57
2023-09-10T13:19:06.697Z,5.63
2023-09-10T13:21:09.894Z,5.70
2023-09-10T13:22:11.349Z,5.32
2023-09-10T13:23:12.911Z,5.40
2023-09-10T13:25:16.050Z,5.45
2023-09-10T13:26:17.551Z,5.43
2023-09-10T13:27:19.006Z,6.18
2023-09-10T13:28:20.681Z,7.13
2023-09-10T13:30:25.267Z,7.25
2023-09-10T13:31:29.329Z,5.47
2023-09-10T13:32:30.871Z,6.35
2023-09-10T13:33:32.339Z,5.97
2023-09-10T13:34:34.844Z,6.88
2023-09-10T13:35:40.075Z,6.78
2023-09-10T13:36:41.581Z,5.50
2023-09-10T13:37:43.532Z,5.50
2023-09-10T13:38:48.879Z,5.53
2023-09-10T13:39:50.347Z,5.97
2023-09-10T13:40:57.526Z,5.40
2023-09-10T13:41:59.210Z,5.72
2023-09-10T13:43:00.676Z,5.40
2023-09-10T13:44:03.342Z,5.68
2023-09-10T13:45:05.766Z,6.60
2023-09-10T13:46:07.336Z,5.45
2023-09-10T13:47:08.894Z,6.43
2023-09-10T13:48:10.586Z,6.90
2023-09-10T13:50:14.371Z,5.32
2023-09-10T13:51:15.925Z,5.13
2023-09-10T13:52:17.402Z,5.60
2023-09-10T13:53:18.911Z,6.32
2023-09-10T13:54:20.392Z,6.18
2023-09-10T13:55:22.191Z,5.30
2023-09-10T13:56:25.217Z,5.28
2023-09-10T13:57:26.815Z,5.15
2023-09-10T13:58:28.261Z,6.40
2023-09-10T13:59:29.756Z,5.63
2023-09-10T14:00:31.245Z,5.40
2023-09-10T14:01:36.970Z,5.60
2023-09-10T14:02:38.609Z,6.07
2023-09-10T14:04:42.063Z,5.60
2023-09-10T14:05:43.812Z,5.57
2023-09-10T14:06:45.364Z,5.63
2023-09-10T14:07:46.810Z,5.80
2023-09-10T14:08:48.502Z,5.53
2023-09-10T14:10:51.310Z,7.07
2023-09-10T14:11:52.757Z,6.55
2023-09-10T14:12:54.291Z,5.30
2023-09-10T14:13:56.087Z,5.50
2023-09-10T14:14:57.630Z,5.70
2023-09-10T14:15:59.136Z,6.07
2023-09-10T14:17:00.619Z,5.63
2023-09-10T14:18:02.365Z,5.38
2023-09-10T14:20:05.806Z,5.05
2023-09-10T14:21:09.656Z,6.40
2023-09-10T14:22:11.172Z,6.55
2023-09-10T14:23:12.675Z,5.60
2023-09-10T14:24:14.247Z,5.50
2023-09-10T14:25:16.861Z,5.75
2023-09-10T14:26:19.020Z,6.50
2023-09-10T14:27:20.624Z,7.05
2023-09-10T14:28:22.098Z,6.72
2023-09-10T14:29:23.956Z,5.90
2023-09-10T14:30:25.645Z,5.22
2023-09-10T14:32:28.639Z,5.50
2023-09-10T14:33:30.551Z,6.55